sensor_id;sensor_type;location;lat;lon;timestamp;pressure;altitude;pressure_sealevel;temperature;humidity
57799;BME280;43626;53.866;30.298;2023-01-28T00:01:40;1030.9;;;0.9;60.4
57799;BME280;43626;53.866;30.298;2023-01-28T00:06:20;1030.9;;;0.9;60.3
57799;BME280;43626;53.866;30.298;2023-01-28T00:11:40;1031;;;0.9;60.2
57799;BME280;43626;53.866;30.298;2023-01-28T00:16:42;1031;;;0.9;60.4
57799;BME280;43626;53.866;30.298;2023-01-28T00:21:56;1030.9;;;0.9;60.4
57799;BME280;43626;53.866;30.298;2023-01-28T00:26:33;1030.9;;;0.9;60.5
57799;BME280;43626;53.866;30.298;2023-01-28T00:31:54;1030.9;;;0.9;60.7
57799;BME280;43626;53.866;30.298;2023-01-28T00:36:42;1030.8;;;0.9;60.6
57799;BME280;43626;53.866;30.298;2023-01-28T00:41:11;1030.8;;;0.9;60.6
57799;BME280;43626;53.866;30.298;2023-01-28T00:46:21;1030.8;;;0.9;60.6
57799;BME280;43626;53.866;30.298;2023-01-28T00:51:21;1030.8;;;0.8;60.6
57799;BME280;43626;53.866;30.298;2023-01-28T00:56:44;1030.8;;;0.8;60.5
57799;BME280;43626;53.866;30.298;2023-01-28T01:01:33;1030.7;;;0.7;60.3
57799;BME280;43626;53.866;30.298;2023-01-28T01:06:20;1030.8;;;0.7;60.5
57799;BME280;43626;53.866;30.298;2023-01-28T01:11:54;1030.9;;;0.7;60.4
57799;BME280;43626;53.866;30.298;2023-01-28T01:16:56;1030.9;;;0.7;60.4
57799;BME280;43626;53.866;30.298;2023-01-28T01:21:11;1030.9;;;0.7;60.5
57799;BME280;43626;53.866;30.298;2023-01-28T01:26:54;1030.9;;;0.7;60.4
57799;BME280;43626;53.866;30.298;2023-01-28T01:31:52;1030.9;;;0.7;60.4
57799;BME280;43626;53.866;30.298;2023-01-28T01:36:30;1030.9;;;0.8;60.5
57799;BME280;43626;53.866;30.298;2023-01-28T01:41:14;1030.9;;;0.7;60.4
57799;BME280;43626;53.866;30.298;2023-01-28T01:46:10;1030.9;;;0.6;60.2
57799;BME280;43626;53.866;30.298;2023-01-28T01:51:31;1030.9;;;0.6;60.2
57799;BME280;43626;53.866;30.298;2023-01-28T01:56:45;1030.9;;;0.6;60.3
57799;BME280;43626;53.866;30.298;2023-01-28T02:01:32;1030.8;;;0.6;60.1
57799;BME280;43626;53.866;30.298;2023-01-28T02:06:52;1030.8;;;0.6;60.2
57799;BME280;43626;53.866;30.298;2023-01-28T02:11:10;1030.8;;;0.6;60.1
57799;BME280;43626;53.866;30.298;2023-01-28T02:16:33;1030.8;;;0.6;60.3
57799;BME280;43626;53.866;30.298;2023-01-28T02:21:17;1030.8;;;0.6;60.5
57799;BME280;43626;53.866;30.298;2023-01-28T02:31:48;1030.9;;;0.6;60.7
57799;BME280;43626;53.866;30.298;2023-01-28T02:36:32;1030.9;;;0.6;60.7
57799;BME280;43626;53.866;30.298;2023-01-28T02:41:24;1030.9;;;0.6;60.8
57799;BME280;43626;53.866;30.298;2023-01-28T02:46:44;1030.9;;;0.6;60.9
57799;BME280;43626;53.866;30.298;2023-01-28T02:52:02;1030.9;;;0.6;60.8
57799;BME280;43626;53.866;30.298;2023-01-28T02:56:44;1030.9;;;0.6;60.8
57799;BME280;43626;53.866;30.298;2023-01-28T03:02:00;1031;;;0.6;60.9
57799;BME280;43626;53.866;30.298;2023-01-28T03:06:36;1030.9;;;0.5;60.9
57799;BME280;43626;53.866;30.298;2023-01-28T03:11:35;1030.9;;;0.5;61
57799;BME280;43626;53.866;30.298;2023-01-28T03:16:11;1030.9;;;0.5;61.1
57799;BME280;43626;53.866;30.298;2023-01-28T03:21:44;1030.9;;;0.5;61.2
57799;BME280;43626;53.866;30.298;2023-01-28T03:26:10;1030.9;;;0.5;61.2
57799;BME280;43626;53.866;30.298;2023-01-28T03:31:32;1030.9;;;0.5;61.2
57799;BME280;43626;53.866;30.298;2023-01-28T03:36:32;1030.9;;;0.5;61.2
57799;BME280;43626;53.866;30.298;2023-01-28T03:41:54;1030.9;;;0.5;61.3
57799;BME280;43626;53.866;30.298;2023-01-28T03:46:58;1030.9;;;0.5;61.4
57799;BME280;43626;53.866;30.298;2023-01-28T03:51:32;1030.9;;;0.5;61.3
57799;BME280;43626;53.866;30.298;2023-01-28T03:56:56;1030.9;;;0.4;61.4
57799;BME280;43626;53.866;30.298;2023-01-28T04:01:32;1030.8;;;0.4;61.5
57799;BME280;43626;53.866;30.298;2023-01-28T04:06:42;1030.8;;;0.4;61.4
57799;BME280;43626;53.866;30.298;2023-01-28T04:11:10;1030.8;;;0.4;61.5
57799;BME280;43626;53.866;30.298;2023-01-28T04:16:45;1030.8;;;0.4;61.4
57799;BME280;43626;53.866;30.298;2023-01-28T04:21:25;1030.8;;;0.4;61.4
57799;BME280;43626;53.866;30.298;2023-01-28T04:26:58;1030.9;;;0.4;61.4
57799;BME280;43626;53.866;30.298;2023-01-28T04:31:44;1030.9;;;0.4;61.4
57799;BME280;43626;53.866;30.298;2023-01-28T04:36:56;1030.9;;;0.4;61.3
57799;BME280;43626;53.866;30.298;2023-01-28T04:41:58;1031;;;0.4;61.2
57799;BME280;43626;53.866;30.298;2023-01-28T04:46:47;1031;;;0.3;61.2
57799;BME280;43626;53.866;30.298;2023-01-28T04:51:10;1031;;;0.2;61.1
57799;BME280;43626;53.866;30.298;2023-01-28T04:56:22;1031;;;0.1;61
57799;BME280;43626;53.866;30.298;2023-01-28T05:01:40;1031;;;0.1;61.2
57799;BME280;43626;53.866;30.298;2023-01-28T05:06:20;1031;;;0.1;61.1
57799;BME280;43626;53.866;30.298;2023-01-28T05:11:42;1031.1;;;0;61.2
57799;BME280;43626;53.866;30.298;2023-01-28T05:16:20;1031.1;;;0;61.3
57799;BME280;43626;53.866;30.298;2023-01-28T05:21:56;1031.1;;;0;61.4
57799;BME280;43626;53.866;30.298;2023-01-28T05:26:10;1031.1;;;-0.1;61.4
57799;BME280;43626;53.866;30.298;2023-01-28T05:31:56;1031.2;;;-0.1;61.6
57799;BME280;43626;53.866;30.298;2023-01-28T05:36:45;1031.2;;;-0.1;61.7
57799;BME280;43626;53.866;30.298;2023-01-28T05:41:44;1031.3;;;-0.1;61.7
57799;BME280;43626;53.866;30.298;2023-01-28T05:46:44;1031.3;;;-0.1;61.7
57799;BME280;43626;53.866;30.298;2023-01-28T05:51:10;1031.3;;;-0.1;61.7
57799;BME280;43626;53.866;30.298;2023-01-28T05:56:42;1031.3;;;-0.2;61.6
57799;BME280;43626;53.866;30.298;2023-01-28T06:01:34;1031.4;;;-0.2;61.6
57799;BME280;43626;53.866;30.298;2023-01-28T06:06:44;1031.5;;;-0.2;61.8
57799;BME280;43626;53.866;30.298;2023-01-28T06:11:34;1031.5;;;-0.1;62
57799;BME280;43626;53.866;30.298;2023-01-28T06:16:43;1031.5;;;-0.1;61.6
57799;BME280;43626;53.866;30.298;2023-01-28T06:21:34;1031.5;;;0;61.6
57799;BME280;43626;53.866;30.298;2023-01-28T06:26:42;1031.5;;;0;61.5
57799;BME280;43626;53.866;30.298;2023-01-28T06:31:47;1031.5;;;-0.1;61.2
57799;BME280;43626;53.866;30.298;2023-01-28T06:36:25;1031.5;;;-0.1;61.1
57799;BME280;43626;53.866;30.298;2023-01-28T06:41:26;1031.5;;;-0.2;61
57799;BME280;43626;53.866;30.298;2023-01-28T06:46:21;1031.5;;;-0.2;61.1
57799;BME280;43626;53.866;30.298;2023-01-28T06:52:01;1031.5;;;-0.2;61.7
57799;BME280;43626;53.866;30.298;2023-01-28T06:56:10;1031.5;;;-0.2;62.3
57799;BME280;43626;53.866;30.298;2023-01-28T07:01:42;1031.5;;;-0.1;62.4
57799;BME280;43626;53.866;30.298;2023-01-28T07:06:44;1031.6;;;0;62.3
57799;BME280;43626;53.866;30.298;2023-01-28T07:11:56;1031.6;;;0.1;62.2
57799;BME280;43626;53.866;30.298;2023-01-28T07:16:25;1031.6;;;0.3;62
57799;BME280;43626;53.866;30.298;2023-01-28T07:21:44;1031.6;;;0.3;62
57799;BME280;43626;53.866;30.298;2023-01-28T07:26:46;1031.6;;;0.4;61.9
57799;BME280;43626;53.866;30.298;2023-01-28T07:31:30;1031.6;;;0.5;61.8
57799;BME280;43626;53.866;30.298;2023-01-28T07:36:32;1031.6;;;0.6;61.7
57799;BME280;43626;53.866;30.298;2023-01-28T07:41:10;1031.6;;;0.6;61.7
57799;BME280;43626;53.866;30.298;2023-01-28T07:47:01;1031.6;;;0.6;61.6
57799;BME280;43626;53.866;30.298;2023-01-28T07:51:11;1031.6;;;0.7;61.5
57799;BME280;43626;53.866;30.298;2023-01-28T07:56:32;1031.5;;;0.7;61.2
57799;BME280;43626;53.866;30.298;2023-01-28T08:01:54;1031.5;;;0.8;61
57799;BME280;43626;53.866;30.298;2023-01-28T08:06:56;1031.4;;;0.8;60.8
57799;BME280;43626;53.866;30.298;2023-01-28T08:11:21;1031.4;;;0.8;60.8
57799;BME280;43626;53.866;30.298;2023-01-28T08:16:59;1031.4;;;0.9;60.8
57799;BME280;43626;53.866;30.298;2023-01-28T08:21:58;1031.4;;;0.9;60.9
57799;BME280;43626;53.866;30.298;2023-01-28T08:26:33;1031.4;;;1.1;62
57799;BME280;43626;53.866;30.298;2023-01-28T08:31:18;1031.3;;;1.4;61.1
57799;BME280;43626;53.866;30.298;2023-01-28T08:36:19;1031.3;;;1.5;60.6
57799;BME280;43626;53.866;30.298;2023-01-28T08:41:32;1031.3;;;1.6;60.2
57799;BME280;43626;53.866;30.298;2023-01-28T08:46:37;1031.2;;;1.6;59.4
57799;BME280;43626;53.866;30.298;2023-01-28T08:51:36;1031.3;;;1.6;59.1
57799;BME280;43626;53.866;30.298;2023-01-28T08:56:58;1031.2;;;1.6;58.8
57799;BME280;43626;53.866;30.298;2023-01-28T09:01:22;1031.2;;;1.5;58.8
57799;BME280;43626;53.866;30.298;2023-01-28T09:06:47;1031.1;;;1.5;58.9
57799;BME280;43626;53.866;30.298;2023-01-28T09:11:23;1031.1;;;1.6;58.8
57799;BME280;43626;53.866;30.298;2023-01-28T09:16:46;1031;;;1.6;59.5
57799;BME280;43626;53.866;30.298;2023-01-28T09:21:11;1031;;;1.6;59.1
57799;BME280;43626;53.866;30.298;2023-01-28T09:26:35;1031;;;1.7;58.6
57799;BME280;43626;53.866;30.298;2023-01-28T09:31:19;1031;;;1.7;58.5
57799;BME280;43626;53.866;30.298;2023-01-28T09:36:47;1030.9;;;1.7;58.7
57799;BME280;43626;53.866;30.298;2023-01-28T09:42:03;1030.8;;;1.7;58.6
57799;BME280;43626;53.866;30.298;2023-01-28T09:46:23;1030.8;;;1.7;58.1
57799;BME280;43626;53.866;30.298;2023-01-28T09:51:57;1030.8;;;1.7;57.7
57799;BME280;43626;53.866;30.298;2023-01-28T09:56:21;1030.7;;;1.7;57.6
57799;BME280;43626;53.866;30.298;2023-01-28T10:01:44;1030.7;;;1.7;57.5
57799;BME280;43626;53.866;30.298;2023-01-28T10:06:14;1030.7;;;1.6;57.8
57799;BME280;43626;53.866;30.298;2023-01-28T10:11:39;1030.7;;;1.6;57.9
57799;BME280;43626;53.866;30.298;2023-01-28T10:16:26;1030.7;;;1.3;58.2
57799;BME280;43626;53.866;30.298;2023-01-28T10:22:00;1030.6;;;1.2;58.6
57799;BME280;43626;53.866;30.298;2023-01-28T10:26:45;1030.7;;;1.1;58.4
57799;BME280;43626;53.866;30.298;2023-01-28T10:31:56;1030.6;;;1.2;58.4
57799;BME280;43626;53.866;30.298;2023-01-28T10:36:57;1030.6;;;1.3;57.8
57799;BME280;43626;53.866;30.298;2023-01-28T10:41:45;1030.5;;;1.3;57.2
57799;BME280;43626;53.866;30.298;2023-01-28T10:46:11;1030.4;;;1.3;57.3
57799;BME280;43626;53.866;30.298;2023-01-28T10:51:30;1030.4;;;1.4;57.5
57799;BME280;43626;53.866;30.298;2023-01-28T10:56:45;1030.3;;;1.5;57.1
57799;BME280;43626;53.866;30.298;2023-01-28T11:01:23;1030.3;;;1.5;56.9
57799;BME280;43626;53.866;30.298;2023-01-28T11:06:53;1030.3;;;1.6;56.9
57799;BME280;43626;53.866;30.298;2023-01-28T11:11:12;1030.3;;;1.7;56.7
57799;BME280;43626;53.866;30.298;2023-01-28T11:16:57;1030.3;;;1.7;56
57799;BME280;43626;53.866;30.298;2023-01-28T11:21:47;1030.2;;;1.7;55
57799;BME280;43626;53.866;30.298;2023-01-28T11:27:00;1030.2;;;1.6;55.2
57799;BME280;43626;53.866;30.298;2023-01-28T11:31:53;1030.1;;;1.6;55.5
57799;BME280;43626;53.866;30.298;2023-01-28T11:36:48;1030.1;;;1.7;54.9
57799;BME280;43626;53.866;30.298;2023-01-28T11:41:43;1030;;;1.9;54.6
57799;BME280;43626;53.866;30.298;2023-01-28T11:46:35;1030;;;2.1;54.6
57799;BME280;43626;53.866;30.298;2023-01-28T11:51:44;1030;;;2.4;54.4
57799;BME280;43626;53.866;30.298;2023-01-28T11:56:27;1030;;;2.4;54
57799;BME280;43626;53.866;30.298;2023-01-28T12:01:20;1030;;;2.3;54
57799;BME280;43626;53.866;30.298;2023-01-28T12:06:46;1029.9;;;2.2;54.1
57799;BME280;43626;53.866;30.298;2023-01-28T12:12:01;1029.9;;;2.1;54
57799;BME280;43626;53.866;30.298;2023-01-28T12:16:30;1029.9;;;2.1;53.7
57799;BME280;43626;53.866;30.298;2023-01-28T12:22:00;1029.9;;;2.1;53.9
57799;BME280;43626;53.866;30.298;2023-01-28T12:26:46;1029.9;;;2.1;53.7
57799;BME280;43626;53.866;30.298;2023-01-28T12:31:45;1029.8;;;2.1;53.9
57799;BME280;43626;53.866;30.298;2023-01-28T12:36:36;1029.8;;;2.1;53.7
57799;BME280;43626;53.866;30.298;2023-01-28T12:41:35;1029.7;;;2.1;53.8
57799;BME280;43626;53.866;30.298;2023-01-28T12:46:46;1029.7;;;2;53.5
57799;BME280;43626;53.866;30.298;2023-01-28T12:51:46;1029.7;;;2;53.3
57799;BME280;43626;53.866;30.298;2023-01-28T12:56:32;1029.7;;;1.9;53.9
57799;BME280;43626;53.866;30.298;2023-01-28T13:01:26;1029.7;;;1.9;53.6
57799;BME280;43626;53.866;30.298;2023-01-28T13:06:57;1029.6;;;1.9;54.3
57799;BME280;43626;53.866;30.298;2023-01-28T13:11:35;1029.6;;;1.8;53.8
57799;BME280;43626;53.866;30.298;2023-01-28T13:16:43;1029.6;;;1.8;53.9
57799;BME280;43626;53.866;30.298;2023-01-28T13:21:41;1029.7;;;1.7;54.4
57799;BME280;43626;53.866;30.298;2023-01-28T13:26:27;1029.6;;;1.7;54.5
57799;BME280;43626;53.866;30.298;2023-01-28T13:31:36;1029.6;;;1.7;54.6
57799;BME280;43626;53.866;30.298;2023-01-28T13:36:17;1029.5;;;1.7;54.8
57799;BME280;43626;53.866;30.298;2023-01-28T13:42:06;1029.5;;;1.8;54.8
57799;BME280;43626;53.866;30.298;2023-01-28T13:46:26;1029.5;;;1.7;54.6
57799;BME280;43626;53.866;30.298;2023-01-28T13:51:14;1029.5;;;1.6;54.7
57799;BME280;43626;53.866;30.298;2023-01-28T13:57:06;1029.5;;;1.7;55.1
57799;BME280;43626;53.866;30.298;2023-01-28T14:02:06;1029.5;;;1.7;55.2
57799;BME280;43626;53.866;30.298;2023-01-28T14:07:09;1029.5;;;1.7;54.8
57799;BME280;43626;53.866;30.298;2023-01-28T14:12:09;1029.4;;;1.6;54.9
57799;BME280;43626;53.866;30.298;2023-01-28T14:16:59;1029.4;;;1.5;55.1
57799;BME280;43626;53.866;30.298;2023-01-28T14:21:11;1029.4;;;1.5;55.4
57799;BME280;43626;53.866;30.298;2023-01-28T14:27:00;1029.4;;;1.5;55.5
57799;BME280;43626;53.866;30.298;2023-01-28T14:31:12;1029.4;;;1.5;55.5
57799;BME280;43626;53.866;30.298;2023-01-28T14:36:35;1029.4;;;1.4;55.7
57799;BME280;43626;53.866;30.298;2023-01-28T14:41:45;1029.4;;;1.4;55.8
57799;BME280;43626;53.866;30.298;2023-01-28T14:46:12;1029.4;;;1.4;55.9
57799;BME280;43626;53.866;30.298;2023-01-28T14:52:02;1029.4;;;1.3;56
57799;BME280;43626;53.866;30.298;2023-01-28T14:56:48;1029.4;;;1.3;56.2
57799;BME280;43626;53.866;30.298;2023-01-28T15:01:23;1029.4;;;1.3;56.2
57799;BME280;43626;53.866;30.298;2023-01-28T15:06:33;1029.4;;;1.3;56.2
57799;BME280;43626;53.866;30.298;2023-01-28T15:11:45;1029.4;;;1.3;56.2
57799;BME280;43626;53.866;30.298;2023-01-28T15:16:14;1029.3;;;1.3;56.3
57799;BME280;43626;53.866;30.298;2023-01-28T15:21:35;1029.3;;;1.3;56.3
57799;BME280;43626;53.866;30.298;2023-01-28T15:26:25;1029.2;;;1.4;56.4
57799;BME280;43626;53.866;30.298;2023-01-28T15:31:17;1029.1;;;1.4;56.3
57799;BME280;43626;53.866;30.298;2023-01-28T15:36:45;1029;;;1.4;56.4
57799;BME280;43626;53.866;30.298;2023-01-28T15:41:36;1029;;;1.4;56.4
57799;BME280;43626;53.866;30.298;2023-01-28T15:46:59;1029;;;1.3;56.2
57799;BME280;43626;53.866;30.298;2023-01-28T15:51:33;1029.1;;;1.3;56.4
57799;BME280;43626;53.866;30.298;2023-01-28T15:56:35;1029;;;1.3;56.9
57799;BME280;43626;53.866;30.298;2023-01-28T16:01:12;1028.9;;;1.3;57
57799;BME280;43626;53.866;30.298;2023-01-28T16:06:47;1028.8;;;1.2;57
57799;BME280;43626;53.866;30.298;2023-01-28T16:11:35;1028.7;;;1.3;57.2
57799;BME280;43626;53.866;30.298;2023-01-28T16:16:47;1028.7;;;1.3;57.2
57799;BME280;43626;53.866;30.298;2023-01-28T16:21:36;1028.7;;;1.3;57.1
57799;BME280;43626;53.866;30.298;2023-01-28T16:26:54;1028.7;;;1.2;57.2
57799;BME280;43626;53.866;30.298;2023-01-28T16:31:55;1028.6;;;1.2;57.2
57799;BME280;43626;53.866;30.298;2023-01-28T16:36:35;1028.7;;;1.2;57.3
57799;BME280;43626;53.866;30.298;2023-01-28T16:41:59;1028.7;;;1.1;57.4
57799;BME280;43626;53.866;30.298;2023-01-28T16:46:49;1028.8;;;1.1;57.5
57799;BME280;43626;53.866;30.298;2023-01-28T16:51:45;1028.6;;;1.1;57.7
57799;BME280;43626;53.866;30.298;2023-01-28T16:56:33;1028.6;;;1;57.9
57799;BME280;43626;53.866;30.298;2023-01-28T17:01:47;1028.6;;;1;57.8
57799;BME280;43626;53.866;30.298;2023-01-28T17:06:15;1028.6;;;1;57.7
57799;BME280;43626;53.866;30.298;2023-01-28T17:12:01;1028.6;;;1;57.8
57799;BME280;43626;53.866;30.298;2023-01-28T17:16:49;1028.6;;;1;57.9
57799;BME280;43626;53.866;30.298;2023-01-28T17:21:59;1028.6;;;1;57.9
57799;BME280;43626;53.866;30.298;2023-01-28T17:26:59;1028.7;;;1;58.1
57799;BME280;43626;53.866;30.298;2023-01-28T17:31:49;1028.7;;;1;58.2
57799;BME280;43626;53.866;30.298;2023-01-28T17:36:51;1028.7;;;1;58.2
57799;BME280;43626;53.866;30.298;2023-01-28T17:41:39;1028.7;;;1;58.3
57799;BME280;43626;53.866;30.298;2023-01-28T17:46:39;1028.7;;;0.9;58.4
57799;BME280;43626;53.866;30.298;2023-01-28T17:51:41;1028.7;;;0.8;58.4
57799;BME280;43626;53.866;30.298;2023-01-28T17:56:51;1028.7;;;0.7;58.6
57799;BME280;43626;53.866;30.298;2023-01-28T18:01:23;1028.7;;;0.6;58.6
57799;BME280;43626;53.866;30.298;2023-01-28T18:07:01;1028.7;;;0.5;58.7
57799;BME280;43626;53.866;30.298;2023-01-28T18:11:35;1028.7;;;0.4;59.1
57799;BME280;43626;53.866;30.298;2023-01-28T18:16:59;1028.8;;;0.4;59.2
57799;BME280;43626;53.866;30.298;2023-01-28T18:21:47;1028.8;;;0.4;59.2
57799;BME280;43626;53.866;30.298;2023-01-28T18:26:49;1028.7;;;0.4;59.2
57799;BME280;43626;53.866;30.298;2023-01-28T18:31:35;1028.7;;;0.4;59
57799;BME280;43626;53.866;30.298;2023-01-28T18:36:25;1028.7;;;0.3;59
57799;BME280;43626;53.866;30.298;2023-01-28T18:41:47;1028.7;;;0.2;59.3
57799;BME280;43626;53.866;30.298;2023-01-28T18:46:37;1028.7;;;0.2;59.7
57799;BME280;43626;53.866;30.298;2023-01-28T18:51:35;1028.6;;;0.1;59.5
57799;BME280;43626;53.866;30.298;2023-01-28T18:56:39;1028.6;;;0;59.6
57799;BME280;43626;53.866;30.298;2023-01-28T19:01:59;1028.5;;;0;59.5
57799;BME280;43626;53.866;30.298;2023-01-28T19:06:26;1028.6;;;-0.1;59.7
57799;BME280;43626;53.866;30.298;2023-01-28T19:11:40;1028.6;;;-0.1;59.8
57799;BME280;43626;53.866;30.298;2023-01-28T19:16:51;1028.7;;;-0.1;59.8
57799;BME280;43626;53.866;30.298;2023-01-28T19:21:27;1028.6;;;-0.1;60
57799;BME280;43626;53.866;30.298;2023-01-28T19:26:23;1028.6;;;-0.1;59.9
57799;BME280;43626;53.866;30.298;2023-01-28T19:31:25;1028.5;;;-0.1;59.8
57799;BME280;43626;53.866;30.298;2023-01-28T19:37:01;1028.5;;;-0.2;59.8
57799;BME280;43626;53.866;30.298;2023-01-28T19:41:13;1028.4;;;-0.2;60
57799;BME280;43626;53.866;30.298;2023-01-28T19:46:35;1028.4;;;-0.3;60.2
57799;BME280;43626;53.866;30.298;2023-01-28T19:51:23;1028.5;;;-0.3;60.5
57799;BME280;43626;53.866;30.298;2023-01-28T19:57:01;1028.5;;;-0.3;60.2
57799;BME280;43626;53.866;30.298;2023-01-28T20:01:37;1028.5;;;-0.3;60.3
57799;BME280;43626;53.866;30.298;2023-01-28T20:06:45;1028.4;;;-0.3;60.4
57799;BME280;43626;53.866;30.298;2023-01-28T20:11:47;1028.4;;;-0.3;60.3
57799;BME280;43626;53.866;30.298;2023-01-28T20:16:27;1028.3;;;-0.3;60.5
57799;BME280;43626;53.866;30.298;2023-01-28T20:21:39;1028.4;;;-0.3;60.4
57799;BME280;43626;53.866;30.298;2023-01-28T20:26:13;1028.5;;;-0.4;60.2
57799;BME280;43626;53.866;30.298;2023-01-28T20:31:57;1028.5;;;-0.4;60.3
57799;BME280;43626;53.866;30.298;2023-01-28T20:36:13;1028.4;;;-0.4;60.5
57799;BME280;43626;53.866;30.298;2023-01-28T20:41:27;1028.4;;;-0.4;60.3
57799;BME280;43626;53.866;30.298;2023-01-28T20:47:01;1028.5;;;-0.5;60.3
57799;BME280;43626;53.866;30.298;2023-01-28T20:52:01;1028.5;;;-0.6;60.6
57799;BME280;43626;53.866;30.298;2023-01-28T20:56:25;1028.5;;;-0.6;60.8
57799;BME280;43626;53.866;30.298;2023-01-28T21:02:01;1028.6;;;-0.6;60.8
57799;BME280;43626;53.866;30.298;2023-01-28T21:07:01;1028.5;;;-0.6;60.6
57799;BME280;43626;53.866;30.298;2023-01-28T21:11:13;1028.5;;;-0.6;60.6
57799;BME280;43626;53.866;30.298;2023-01-28T21:16:39;1028.5;;;-0.6;60.4
57799;BME280;43626;53.866;30.298;2023-01-28T21:21:37;1028.4;;;-0.6;60.6
57799;BME280;43626;53.866;30.298;2023-01-28T21:26:49;1028.4;;;-0.5;60.7
57799;BME280;43626;53.866;30.298;2023-01-28T21:31:47;1028.4;;;-0.5;60.6
57799;BME280;43626;53.866;30.298;2023-01-28T21:36:59;1028.3;;;-0.5;60.7
57799;BME280;43626;53.866;30.298;2023-01-28T21:42:01;1028.3;;;-0.5;60.8
57799;BME280;43626;53.866;30.298;2023-01-28T21:46:39;1028.3;;;-0.5;60.9
57799;BME280;43626;53.866;30.298;2023-01-28T21:51:13;1028.3;;;-0.4;61
57799;BME280;43626;53.866;30.298;2023-01-28T21:56:13;1028.2;;;-0.4;61.1
57799;BME280;43626;53.866;30.298;2023-01-28T22:01:49;1028.1;;;-0.4;61.3
57799;BME280;43626;53.866;30.298;2023-01-28T22:06:39;1028;;;-0.3;61.3
57799;BME280;43626;53.866;30.298;2023-01-28T22:11:13;1028;;;-0.3;61.3
57799;BME280;43626;53.866;30.298;2023-01-28T22:16:13;1028;;;-0.2;61.2
57799;BME280;43626;53.866;30.298;2023-01-28T22:21:49;1027.9;;;-0.2;61.1
57799;BME280;43626;53.866;30.298;2023-01-28T22:27:03;1027.8;;;-0.2;61.2
57799;BME280;43626;53.866;30.298;2023-01-28T22:31:37;1027.8;;;-0.1;61.1
57799;BME280;43626;53.866;30.298;2023-01-28T22:37:01;1027.8;;;-0.2;61.1
57799;BME280;43626;53.866;30.298;2023-01-28T22:41:37;1027.8;;;-0.2;61.2
57799;BME280;43626;53.866;30.298;2023-01-28T22:46:39;1027.7;;;-0.3;61.1
57799;BME280;43626;53.866;30.298;2023-01-28T22:51:13;1027.7;;;-0.3;61.1
57799;BME280;43626;53.866;30.298;2023-01-28T22:56:45;1027.6;;;-0.3;60.9
57799;BME280;43626;53.866;30.298;2023-01-28T23:01:13;1027.6;;;-0.3;61
57799;BME280;43626;53.866;30.298;2023-01-28T23:06:57;1027.6;;;-0.3;61.1
57799;BME280;43626;53.866;30.298;2023-01-28T23:11:45;1027.5;;;-0.3;61.2
57799;BME280;43626;53.866;30.298;2023-01-28T23:16:57;1027.5;;;-0.3;61.1
57799;BME280;43626;53.866;30.298;2023-01-28T23:21:57;1027.3;;;-0.3;61
57799;BME280;43626;53.866;30.298;2023-01-28T23:26:49;1027.2;;;-0.3;61.1
57799;BME280;43626;53.866;30.298;2023-01-28T23:31:43;1027.2;;;-0.3;61.1
57799;BME280;43626;53.866;30.298;2023-01-28T23:36:25;1027.1;;;-0.2;61.2
57799;BME280;43626;53.866;30.298;2023-01-28T23:41:31;1027.1;;;-0.1;61.1
57799;BME280;43626;53.866;30.298;2023-01-28T23:46:23;1027;;;-0.1;61.2
57799;BME280;43626;53.866;30.298;2023-01-28T23:51:47;1026.9;;;0;61
57799;BME280;43626;53.866;30.298;2023-01-28T23:56:23;1027;;;0;60.6
